sensor_id;sensor_type;location;lat;lon;timestamp;temperature;humidity
40589;DHT22;26297;49.450;6.640;2023-10-19T00:01:20;15.80;99.90
40589;DHT22;26297;49.450;6.640;2023-10-19T00:04:27;15.80;99.90
40589;DHT22;26297;49.450;6.640;2023-10-19T00:07:35;15.80;99.90
40589;DHT22;26297;49.450;6.640;2023-10-19T00:10:40;15.80;99.90
40589;DHT22;26297;49.450;6.640;2023-10-19T00:13:46;15.90;99.90
40589;DHT22;26297;49.450;6.640;2023-10-19T00:16:52;15.80;99.90
40589;DHT22;26297;49.450;6.640;2023-10-19T00:19:59;15.90;99.90
40589;DHT22;26297;49.450;6.640;2023-10-19T00:23:29;15.90;99.90
40589;DHT22;26297;49.450;6.640;2023-10-19T00:26:35;15.90;99.90
40589;DHT22;26297;49.450;6.640;2023-10-19T00:29:38;15.80;99.90
40589;DHT22;26297;49.450;6.640;2023-10-19T00:32:51;15.90;99.90
40589;DHT22;26297;49.450;6.640;2023-10-19T00:35:56;15.90;99.90
40589;DHT22;26297;49.450;6.640;2023-10-19T00:39:17;15.90;99.90
40589;DHT22;26297;49.450;6.640;2023-10-19T00:42:43;15.80;99.90
40589;DHT22;26297;49.450;6.640;2023-10-19T00:45:56;15.90;99.90
40589;DHT22;26297;49.450;6.640;2023-10-19T00:49:01;15.90;99.90
40589;DHT22;26297;49.450;6.640;2023-10-19T00:52:06;15.80;99.90
40589;DHT22;26297;49.450;6.640;2023-10-19T00:55:22;15.90;99.90
40589;DHT22;26297;49.450;6.640;2023-10-19T00:58:29;15.90;99.90
40589;DHT22;26297;49.450;6.640;2023-10-19T01:01:33;15.80;99.90
40589;DHT22;26297;49.450;6.640;2023-10-19T01:04:40;15.80;99.90
40589;DHT22;26297;49.450;6.640;2023-10-19T01:07:45;15.90;99.90
40589;DHT22;26297;49.450;6.640;2023-10-19T01:10:53;15.90;99.90
40589;DHT22;26297;49.450;6.640;2023-10-19T01:13:57;15.90;99.90
40589;DHT22;26297;49.450;6.640;2023-10-19T01:17:02;15.90;99.90
40589;DHT22;26297;49.450;6.640;2023-10-19T01:20:08;15.90;99.90
40589;DHT22;26297;49.450;6.640;2023-10-19T01:23:21;15.90;99.90
40589;DHT22;26297;49.450;6.640;2023-10-19T01:26:25;15.90;99.90
40589;DHT22;26297;49.450;6.640;2023-10-19T01:29:31;15.90;99.90
40589;DHT22;26297;49.450;6.640;2023-10-19T01:32:35;15.90;99.90
40589;DHT22;26297;49.450;6.640;2023-10-19T01:35:39;15.90;99.90
40589;DHT22;26297;49.450;6.640;2023-10-19T01:39:01;16.00;99.90
40589;DHT22;26297;49.450;6.640;2023-10-19T01:42:06;16.00;99.90
40589;DHT22;26297;49.450;6.640;2023-10-19T01:45:11;16.00;99.90
40589;DHT22;26297;49.450;6.640;2023-10-19T01:48:15;16.00;99.90
40589;DHT22;26297;49.450;6.640;2023-10-19T01:51:19;16.00;99.90
40589;DHT22;26297;49.450;6.640;2023-10-19T01:54:24;16.00;99.90
40589;DHT22;26297;49.450;6.640;2023-10-19T01:57:28;16.00;99.90
40589;DHT22;26297;49.450;6.640;2023-10-19T02:00:31;16.00;99.90
40589;DHT22;26297;49.450;6.640;2023-10-19T02:03:35;16.00;99.90
40589;DHT22;26297;49.450;6.640;2023-10-19T02:06:39;16.00;99.90
40589;DHT22;26297;49.450;6.640;2023-10-19T02:09:49;16.00;99.90
40589;DHT22;26297;49.450;6.640;2023-10-19T02:12:55;16.00;99.90
40589;DHT22;26297;49.450;6.640;2023-10-19T02:15:58;16.00;99.90
40589;DHT22;26297;49.450;6.640;2023-10-19T02:19:02;16.00;99.90
40589;DHT22;26297;49.450;6.640;2023-10-19T02:22:06;16.00;99.90
40589;DHT22;26297;49.450;6.640;2023-10-19T02:25:15;16.00;99.90
40589;DHT22;26297;49.450;6.640;2023-10-19T02:28:20;16.00;99.90
40589;DHT22;26297;49.450;6.640;2023-10-19T02:31:32;16.00;99.90
40589;DHT22;26297;49.450;6.640;2023-10-19T02:34:36;16.00;99.90
40589;DHT22;26297;49.450;6.640;2023-10-19T02:37:39;16.00;99.90
40589;DHT22;26297;49.450;6.640;2023-10-19T02:40:43;16.00;99.90
40589;DHT22;26297;49.450;6.640;2023-10-19T02:43:48;16.00;99.90
40589;DHT22;26297;49.450;6.640;2023-10-19T02:47:03;16.00;99.90
40589;DHT22;26297;49.450;6.640;2023-10-19T02:50:12;16.00;99.90
40589;DHT22;26297;49.450;6.640;2023-10-19T02:53:28;16.00;99.90
40589;DHT22;26297;49.450;6.640;2023-10-19T02:56:32;15.90;99.90
40589;DHT22;26297;49.450;6.640;2023-10-19T02:59:38;15.90;99.90
40589;DHT22;26297;49.450;6.640;2023-10-19T03:02:41;15.90;99.90
40589;DHT22;26297;49.450;6.640;2023-10-19T03:05:45;15.90;99.90
40589;DHT22;26297;49.450;6.640;2023-10-19T03:08:50;16.00;99.90
40589;DHT22;26297;49.450;6.640;2023-10-19T03:12:00;15.90;99.90
40589;DHT22;26297;49.450;6.640;2023-10-19T03:15:07;15.90;99.90
40589;DHT22;26297;49.450;6.640;2023-10-19T03:18:11;15.90;99.90
40589;DHT22;26297;49.450;6.640;2023-10-19T03:21:19;15.90;99.90
40589;DHT22;26297;49.450;6.640;2023-10-19T03:24:29;15.90;99.90
40589;DHT22;26297;49.450;6.640;2023-10-19T03:27:38;16.00;99.90
40589;DHT22;26297;49.450;6.640;2023-10-19T03:30:42;16.00;99.90
40589;DHT22;26297;49.450;6.640;2023-10-19T03:33:46;16.00;99.90
40589;DHT22;26297;49.450;6.640;2023-10-19T03:36:56;16.00;99.90
40589;DHT22;26297;49.450;6.640;2023-10-19T03:40:00;16.00;99.90
40589;DHT22;26297;49.450;6.640;2023-10-19T03:43:09;16.00;99.90
40589;DHT22;26297;49.450;6.640;2023-10-19T03:46:24;16.00;99.90
40589;DHT22;26297;49.450;6.640;2023-10-19T03:49:34;16.00;99.90
40589;DHT22;26297;49.450;6.640;2023-10-19T03:52:39;16.00;99.90
40589;DHT22;26297;49.450;6.640;2023-10-19T03:55:43;16.00;99.90
40589;DHT22;26297;49.450;6.640;2023-10-19T03:58:47;16.00;99.90
40589;DHT22;26297;49.450;6.640;2023-10-19T04:01:54;16.00;99.90
40589;DHT22;26297;49.450;6.640;2023-10-19T04:04:57;16.00;99.90
40589;DHT22;26297;49.450;6.640;2023-10-19T04:08:00;16.00;99.90
40589;DHT22;26297;49.450;6.640;2023-10-19T04:11:09;16.00;99.90
40589;DHT22;26297;49.450;6.640;2023-10-19T04:14:24;16.00;99.90
40589;DHT22;26297;49.450;6.640;2023-10-19T04:17:30;16.00;99.90
40589;DHT22;26297;49.450;6.640;2023-10-19T04:20:36;16.00;99.90
40589;DHT22;26297;49.450;6.640;2023-10-19T04:23:58;16.00;99.90
40589;DHT22;26297;49.450;6.640;2023-10-19T04:27:02;16.00;99.90
40589;DHT22;26297;49.450;6.640;2023-10-19T04:30:10;16.00;99.90
40589;DHT22;26297;49.450;6.640;2023-10-19T04:33:25;16.00;99.90
40589;DHT22;26297;49.450;6.640;2023-10-19T04:36:31;16.00;99.90
40589;DHT22;26297;49.450;6.640;2023-10-19T04:39:35;16.10;99.90
40589;DHT22;26297;49.450;6.640;2023-10-19T04:42:39;16.10;99.90
40589;DHT22;26297;49.450;6.640;2023-10-19T04:45:42;16.10;99.90
40589;DHT22;26297;49.450;6.640;2023-10-19T04:48:50;16.10;99.90
40589;DHT22;26297;49.450;6.640;2023-10-19T04:51:53;16.10;99.90
40589;DHT22;26297;49.450;6.640;2023-10-19T04:54:57;16.10;99.90
40589;DHT22;26297;49.450;6.640;2023-10-19T04:58:01;16.10;99.90
40589;DHT22;26297;49.450;6.640;2023-10-19T05:01:04;16.10;99.90
40589;DHT22;26297;49.450;6.640;2023-10-19T05:04:08;16.10;99.90
40589;DHT22;26297;49.450;6.640;2023-10-19T05:07:12;16.10;99.90
40589;DHT22;26297;49.450;6.640;2023-10-19T05:10:18;16.10;99.90
40589;DHT22;26297;49.450;6.640;2023-10-19T05:13:24;16.10;99.90
40589;DHT22;26297;49.450;6.640;2023-10-19T05:16:28;16.10;99.90
40589;DHT22;26297;49.450;6.640;2023-10-19T05:19:32;16.10;99.90
40589;DHT22;26297;49.450;6.640;2023-10-19T05:22:36;16.10;99.90
40589;DHT22;26297;49.450;6.640;2023-10-19T05:25:40;16.10;99.90
40589;DHT22;26297;49.450;6.640;2023-10-19T05:28:43;16.20;99.90
40589;DHT22;26297;49.450;6.640;2023-10-19T05:31:46;16.10;99.90
40589;DHT22;26297;49.450;6.640;2023-10-19T05:34:50;16.10;99.90
40589;DHT22;26297;49.450;6.640;2023-10-19T05:37:53;16.20;99.90
40589;DHT22;26297;49.450;6.640;2023-10-19T05:41:00;16.20;99.90
40589;DHT22;26297;49.450;6.640;2023-10-19T05:44:06;16.20;99.90
40589;DHT22;26297;49.450;6.640;2023-10-19T05:47:10;16.20;99.90
40589;DHT22;26297;49.450;6.640;2023-10-19T05:50:13;16.20;99.90
40589;DHT22;26297;49.450;6.640;2023-10-19T05:53:20;16.20;99.90
40589;DHT22;26297;49.450;6.640;2023-10-19T05:56:25;16.20;99.90
40589;DHT22;26297;49.450;6.640;2023-10-19T05:59:28;16.20;99.90
40589;DHT22;26297;49.450;6.640;2023-10-19T06:02:36;16.20;99.90
40589;DHT22;26297;49.450;6.640;2023-10-19T06:05:40;16.20;99.90
40589;DHT22;26297;49.450;6.640;2023-10-19T06:08:47;16.20;99.90
40589;DHT22;26297;49.450;6.640;2023-10-19T06:11:50;16.20;99.90
40589;DHT22;26297;49.450;6.640;2023-10-19T06:14:54;16.20;99.90
40589;DHT22;26297;49.450;6.640;2023-10-19T06:18:00;16.20;99.90
40589;DHT22;26297;49.450;6.640;2023-10-19T06:21:04;16.20;99.90
40589;DHT22;26297;49.450;6.640;2023-10-19T06:24:07;16.20;99.90
40589;DHT22;26297;49.450;6.640;2023-10-19T06:27:11;16.20;99.90
40589;DHT22;26297;49.450;6.640;2023-10-19T06:30:15;16.20;99.90
40589;DHT22;26297;49.450;6.640;2023-10-19T06:33:21;16.20;99.90
40589;DHT22;26297;49.450;6.640;2023-10-19T06:36:29;16.20;99.90
40589;DHT22;26297;49.450;6.640;2023-10-19T06:39:32;16.20;99.90
40589;DHT22;26297;49.450;6.640;2023-10-19T06:42:38;16.30;99.90
40589;DHT22;26297;49.450;6.640;2023-10-19T06:45:50;16.20;99.90
40589;DHT22;26297;49.450;6.640;2023-10-19T06:48:53;16.20;99.90
40589;DHT22;26297;49.450;6.640;2023-10-19T06:51:59;16.20;99.90
40589;DHT22;26297;49.450;6.640;2023-10-19T06:55:07;16.30;99.90
40589;DHT22;26297;49.450;6.640;2023-10-19T07:02:25;16.30;99.90
40589;DHT22;26297;49.450;6.640;2023-10-19T07:05:32;16.30;99.90
40589;DHT22;26297;49.450;6.640;2023-10-19T07:08:37;16.30;99.90
40589;DHT22;26297;49.450;6.640;2023-10-19T07:11:41;16.30;99.90
40589;DHT22;26297;49.450;6.640;2023-10-19T07:14:47;16.30;99.90
40589;DHT22;26297;49.450;6.640;2023-10-19T07:17:51;16.30;99.90
40589;DHT22;26297;49.450;6.640;2023-10-19T07:20:57;16.30;99.90
40589;DHT22;26297;49.450;6.640;2023-10-19T07:24:08;16.30;99.90
40589;DHT22;26297;49.450;6.640;2023-10-19T07:27:18;16.30;99.90
40589;DHT22;26297;49.450;6.640;2023-10-19T07:30:22;16.30;99.90
40589;DHT22;26297;49.450;6.640;2023-10-19T07:33:41;16.30;99.90
40589;DHT22;26297;49.450;6.640;2023-10-19T07:37:21;16.30;99.90
40589;DHT22;26297;49.450;6.640;2023-10-19T07:40:34;16.30;99.90
40589;DHT22;26297;49.450;6.640;2023-10-19T07:47:00;16.30;99.90
40589;DHT22;26297;49.450;6.640;2023-10-19T07:50:17;16.30;99.90
40589;DHT22;26297;49.450;6.640;2023-10-19T07:53:59;16.30;99.90
40589;DHT22;26297;49.450;6.640;2023-10-19T08:00:39;16.30;99.90
40589;DHT22;26297;49.450;6.640;2023-10-19T08:03:55;16.30;99.90
40589;DHT22;26297;49.450;6.640;2023-10-19T08:07:29;16.30;99.90
40589;DHT22;26297;49.450;6.640;2023-10-19T08:10:58;16.30;99.90
40589;DHT22;26297;49.450;6.640;2023-10-19T08:14:17;16.30;99.90
40589;DHT22;26297;49.450;6.640;2023-10-19T08:17:43;16.40;99.90
40589;DHT22;26297;49.450;6.640;2023-10-19T08:20:52;16.30;99.90
40589;DHT22;26297;49.450;6.640;2023-10-19T08:24:12;16.30;99.90
40589;DHT22;26297;49.450;6.640;2023-10-19T08:28:08;16.40;99.90
40589;DHT22;26297;49.450;6.640;2023-10-19T08:31:27;16.40;99.90
40589;DHT22;26297;49.450;6.640;2023-10-19T08:34:50;16.40;99.90
40589;DHT22;26297;49.450;6.640;2023-10-19T08:37:59;16.40;99.90
40589;DHT22;26297;49.450;6.640;2023-10-19T08:41:28;16.40;99.90
40589;DHT22;26297;49.450;6.640;2023-10-19T08:48:39;16.50;99.90
40589;DHT22;26297;49.450;6.640;2023-10-19T09:08:35;16.60;99.90
40589;DHT22;26297;49.450;6.640;2023-10-19T09:12:22;16.60;99.90
40589;DHT22;26297;49.450;6.640;2023-10-19T09:15:59;16.60;99.90
40589;DHT22;26297;49.450;6.640;2023-10-19T09:20:15;16.60;99.90
40589;DHT22;26297;49.450;6.640;2023-10-19T09:27:53;16.60;99.90
40589;DHT22;26297;49.450;6.640;2023-10-19T09:35:31;16.60;99.90
40589;DHT22;26297;49.450;6.640;2023-10-19T09:42:31;16.60;99.90
40589;DHT22;26297;49.450;6.640;2023-10-19T09:46:07;16.60;99.90
40589;DHT22;26297;49.450;6.640;2023-10-19T09:49:10;16.60;99.90
40589;DHT22;26297;49.450;6.640;2023-10-19T09:52:16;16.60;99.90
40589;DHT22;26297;49.450;6.640;2023-10-19T09:55:34;16.60;99.90
40589;DHT22;26297;49.450;6.640;2023-10-19T09:59:00;16.60;99.90
40589;DHT22;26297;49.450;6.640;2023-10-19T10:02:11;16.60;99.90
40589;DHT22;26297;49.450;6.640;2023-10-19T10:08:48;16.70;99.90
40589;DHT22;26297;49.450;6.640;2023-10-19T10:11:54;16.70;99.90
40589;DHT22;26297;49.450;6.640;2023-10-19T10:15:01;16.70;99.90
40589;DHT22;26297;49.450;6.640;2023-10-19T10:18:12;16.70;99.90
40589;DHT22;26297;49.450;6.640;2023-10-19T10:27:10;16.80;99.90
40589;DHT22;26297;49.450;6.640;2023-10-19T10:30:23;16.70;99.90
40589;DHT22;26297;49.450;6.640;2023-10-19T10:33:48;16.70;99.90
40589;DHT22;26297;49.450;6.640;2023-10-19T10:37:07;16.70;99.90
40589;DHT22;26297;49.450;6.640;2023-10-19T10:40:20;16.70;99.90
40589;DHT22;26297;49.450;6.640;2023-10-19T10:47:00;16.70;99.90
40589;DHT22;26297;49.450;6.640;2023-10-19T10:50:19;16.70;99.90
40589;DHT22;26297;49.450;6.640;2023-10-19T10:53:25;16.70;99.90
40589;DHT22;26297;49.450;6.640;2023-10-19T10:56:39;16.70;99.90
40589;DHT22;26297;49.450;6.640;2023-10-19T10:59:48;16.70;99.90
40589;DHT22;26297;49.450;6.640;2023-10-19T11:03:07;16.70;99.90
40589;DHT22;26297;49.450;6.640;2023-10-19T11:06:19;16.70;99.90
40589;DHT22;26297;49.450;6.640;2023-10-19T11:09:32;16.70;99.90
40589;DHT22;26297;49.450;6.640;2023-10-19T11:12:49;16.70;99.90
40589;DHT22;26297;49.450;6.640;2023-10-19T11:15:58;16.70;99.90
40589;DHT22;26297;49.450;6.640;2023-10-19T11:19:11;16.70;99.90
40589;DHT22;26297;49.450;6.640;2023-10-19T11:22:14;16.70;99.90
40589;DHT22;26297;49.450;6.640;2023-10-19T11:25:25;16.70;99.90
40589;DHT22;26297;49.450;6.640;2023-10-19T11:28:31;16.70;99.90
40589;DHT22;26297;49.450;6.640;2023-10-19T11:31:56;16.70;99.90
40589;DHT22;26297;49.450;6.640;2023-10-19T11:35:01;16.70;99.90
40589;DHT22;26297;49.450;6.640;2023-10-19T11:38:05;16.70;99.90
40589;DHT22;26297;49.450;6.640;2023-10-19T11:41:12;16.60;99.90
40589;DHT22;26297;49.450;6.640;2023-10-19T11:44:21;16.70;99.90
40589;DHT22;26297;49.450;6.640;2023-10-19T11:47:26;16.70;99.90
40589;DHT22;26297;49.450;6.640;2023-10-19T11:50:29;16.70;99.90
40589;DHT22;26297;49.450;6.640;2023-10-19T11:53:41;16.70;99.90
40589;DHT22;26297;49.450;6.640;2023-10-19T11:56:51;16.70;99.90
40589;DHT22;26297;49.450;6.640;2023-10-19T11:59:56;16.70;99.90
40589;DHT22;26297;49.450;6.640;2023-10-19T12:03:00;16.70;99.90
40589;DHT22;26297;49.450;6.640;2023-10-19T12:06:11;16.70;99.90
40589;DHT22;26297;49.450;6.640;2023-10-19T12:09:18;16.70;99.90
40589;DHT22;26297;49.450;6.640;2023-10-19T12:12:30;16.70;99.90
40589;DHT22;26297;49.450;6.640;2023-10-19T12:15:37;16.60;99.90
40589;DHT22;26297;49.450;6.640;2023-10-19T12:18:41;16.70;99.90
40589;DHT22;26297;49.450;6.640;2023-10-19T12:21:45;16.70;99.90
40589;DHT22;26297;49.450;6.640;2023-10-19T12:24:48;16.70;99.90
40589;DHT22;26297;49.450;6.640;2023-10-19T12:27:51;16.70;99.90
40589;DHT22;26297;49.450;6.640;2023-10-19T12:31:01;16.70;99.90
40589;DHT22;26297;49.450;6.640;2023-10-19T12:42:18;16.70;99.90
40589;DHT22;26297;49.450;6.640;2023-10-19T12:45:28;16.70;99.90
40589;DHT22;26297;49.450;6.640;2023-10-19T12:48:31;16.80;99.90
40589;DHT22;26297;49.450;6.640;2023-10-19T12:51:36;16.70;99.90
40589;DHT22;26297;49.450;6.640;2023-10-19T12:54:43;16.70;99.90
40589;DHT22;26297;49.450;6.640;2023-10-19T12:57:56;16.80;99.90
40589;DHT22;26297;49.450;6.640;2023-10-19T13:01:06;16.80;99.90
40589;DHT22;26297;49.450;6.640;2023-10-19T13:04:19;16.80;99.90
40589;DHT22;26297;49.450;6.640;2023-10-19T13:07:29;16.80;99.90
40589;DHT22;26297;49.450;6.640;2023-10-19T13:10:41;16.80;99.90
40589;DHT22;26297;49.450;6.640;2023-10-19T13:14:08;16.80;99.90
40589;DHT22;26297;49.450;6.640;2023-10-19T13:17:15;16.80;99.90
40589;DHT22;26297;49.450;6.640;2023-10-19T13:20:18;16.80;99.90
40589;DHT22;26297;49.450;6.640;2023-10-19T13:23:26;16.80;99.90
40589;DHT22;26297;49.450;6.640;2023-10-19T13:26:29;16.80;99.90
40589;DHT22;26297;49.450;6.640;2023-10-19T13:29:51;16.90;99.90
40589;DHT22;26297;49.450;6.640;2023-10-19T13:32:55;16.90;99.90
40589;DHT22;26297;49.450;6.640;2023-10-19T13:36:04;16.90;99.90
40589;DHT22;26297;49.450;6.640;2023-10-19T13:39:10;16.90;99.90
40589;DHT22;26297;49.450;6.640;2023-10-19T13:42:21;16.90;99.90
40589;DHT22;26297;49.450;6.640;2023-10-19T13:45:30;17.00;99.90
40589;DHT22;26297;49.450;6.640;2023-10-19T13:48:43;17.00;99.90
40589;DHT22;26297;49.450;6.640;2023-10-19T13:52:13;17.00;99.90
40589;DHT22;26297;49.450;6.640;2023-10-19T13:55:27;17.00;99.90
40589;DHT22;26297;49.450;6.640;2023-10-19T13:58:38;17.00;99.90
40589;DHT22;26297;49.450;6.640;2023-10-19T14:01:41;17.00;99.90
40589;DHT22;26297;49.450;6.640;2023-10-19T14:04:47;17.00;99.90
40589;DHT22;26297;49.450;6.640;2023-10-19T14:07:53;17.00;99.90
40589;DHT22;26297;49.450;6.640;2023-10-19T14:11:11;17.00;99.90
40589;DHT22;26297;49.450;6.640;2023-10-19T14:14:17;17.00;99.90
40589;DHT22;26297;49.450;6.640;2023-10-19T14:17:21;17.00;99.90
40589;DHT22;26297;49.450;6.640;2023-10-19T14:20:33;17.00;99.90
40589;DHT22;26297;49.450;6.640;2023-10-19T14:28:11;16.90;99.90
40589;DHT22;26297;49.450;6.640;2023-10-19T14:31:50;16.90;99.90
40589;DHT22;26297;49.450;6.640;2023-10-19T14:34:57;16.90;99.90
40589;DHT22;26297;49.450;6.640;2023-10-19T14:38:12;16.90;99.90
40589;DHT22;26297;49.450;6.640;2023-10-19T14:41:18;16.90;99.90
40589;DHT22;26297;49.450;6.640;2023-10-19T14:44:27;17.00;99.90
40589;DHT22;26297;49.450;6.640;2023-10-19T14:47:39;17.00;99.90
40589;DHT22;26297;49.450;6.640;2023-10-19T14:50:51;17.00;99.90
40589;DHT22;26297;49.450;6.640;2023-10-19T14:54:12;16.90;99.90
40589;DHT22;26297;49.450;6.640;2023-10-19T14:57:22;16.90;99.90
40589;DHT22;26297;49.450;6.640;2023-10-19T15:00:43;16.90;99.90
40589;DHT22;26297;49.450;6.640;2023-10-19T15:04:13;16.90;99.90
40589;DHT22;26297;49.450;6.640;2023-10-19T15:07:22;16.90;99.90
40589;DHT22;26297;49.450;6.640;2023-10-19T15:10:27;16.80;99.90
40589;DHT22;26297;49.450;6.640;2023-10-19T15:13:32;16.90;99.90
40589;DHT22;26297;49.450;6.640;2023-10-19T15:16:44;16.90;99.90
40589;DHT22;26297;49.450;6.640;2023-10-19T15:23:32;16.90;99.90
40589;DHT22;26297;49.450;6.640;2023-10-19T15:27:00;16.90;99.90
40589;DHT22;26297;49.450;6.640;2023-10-19T15:30:13;16.90;99.90
40589;DHT22;26297;49.450;6.640;2023-10-19T15:33:28;16.90;99.90
40589;DHT22;26297;49.450;6.640;2023-10-19T15:36:53;16.90;99.90
40589;DHT22;26297;49.450;6.640;2023-10-19T15:40:04;16.80;99.90
40589;DHT22;26297;49.450;6.640;2023-10-19T15:43:11;16.90;99.90
40589;DHT22;26297;49.450;6.640;2023-10-19T15:46:14;16.90;99.90
40589;DHT22;26297;49.450;6.640;2023-10-19T15:49:25;16.90;99.90
40589;DHT22;26297;49.450;6.640;2023-10-19T15:52:36;16.90;99.90
40589;DHT22;26297;49.450;6.640;2023-10-19T15:55:48;16.90;99.90
40589;DHT22;26297;49.450;6.640;2023-10-19T15:58:51;16.90;99.90
40589;DHT22;26297;49.450;6.640;2023-10-19T16:01:57;16.90;99.90
40589;DHT22;26297;49.450;6.640;2023-10-19T16:05:11;16.90;99.90
40589;DHT22;26297;49.450;6.640;2023-10-19T16:08:25;16.90;99.90
40589;DHT22;26297;49.450;6.640;2023-10-19T16:11:37;16.90;99.90
40589;DHT22;26297;49.450;6.640;2023-10-19T16:14:45;16.80;99.90
40589;DHT22;26297;49.450;6.640;2023-10-19T16:17:54;16.80;99.90
40589;DHT22;26297;49.450;6.640;2023-10-19T16:21:09;16.80;99.90
40589;DHT22;26297;49.450;6.640;2023-10-19T16:24:23;16.80;99.90
40589;DHT22;26297;49.450;6.640;2023-10-19T16:27:27;16.90;99.90
40589;DHT22;26297;49.450;6.640;2023-10-19T16:30:33;16.80;99.90
40589;DHT22;26297;49.450;6.640;2023-10-19T16:33:40;16.90;99.90
40589;DHT22;26297;49.450;6.640;2023-10-19T16:36:45;16.90;99.90
40589;DHT22;26297;49.450;6.640;2023-10-19T16:40:01;16.90;99.90
40589;DHT22;26297;49.450;6.640;2023-10-19T16:43:08;16.90;99.90
40589;DHT22;26297;49.450;6.640;2023-10-19T16:46:12;16.90;99.90
40589;DHT22;26297;49.450;6.640;2023-10-19T16:49:18;16.90;99.90
40589;DHT22;26297;49.450;6.640;2023-10-19T16:52:25;16.90;99.90
40589;DHT22;26297;49.450;6.640;2023-10-19T16:55:29;16.90;99.90
40589;DHT22;26297;49.450;6.640;2023-10-19T16:58:40;16.90;99.90
40589;DHT22;26297;49.450;6.640;2023-10-19T17:02:04;16.90;99.90
40589;DHT22;26297;49.450;6.640;2023-10-19T17:05:08;16.90;99.90
40589;DHT22;26297;49.450;6.640;2023-10-19T17:08:15;16.90;99.90
40589;DHT22;26297;49.450;6.640;2023-10-19T17:11:18;16.90;99.90
40589;DHT22;26297;49.450;6.640;2023-10-19T17:14:24;16.90;99.90
40589;DHT22;26297;49.450;6.640;2023-10-19T17:17:31;16.90;99.90
40589;DHT22;26297;49.450;6.640;2023-10-19T17:20:35;16.90;99.90
40589;DHT22;26297;49.450;6.640;2023-10-19T17:23:39;16.90;99.90
40589;DHT22;26297;49.450;6.640;2023-10-19T17:26:49;16.90;99.90
40589;DHT22;26297;49.450;6.640;2023-10-19T17:29:55;16.80;99.90
40589;DHT22;26297;49.450;6.640;2023-10-19T17:33:01;16.90;99.90
40589;DHT22;26297;49.450;6.640;2023-10-19T17:36:07;16.90;99.90
40589;DHT22;26297;49.450;6.640;2023-10-19T17:39:14;16.90;99.90
40589;DHT22;26297;49.450;6.640;2023-10-19T17:42:20;16.90;99.90
40589;DHT22;26297;49.450;6.640;2023-10-19T17:45:31;16.90;99.90
40589;DHT22;26297;49.450;6.640;2023-10-19T17:48:34;16.90;99.90
40589;DHT22;26297;49.450;6.640;2023-10-19T17:51:40;16.90;99.90
40589;DHT22;26297;49.450;6.640;2023-10-19T17:54:59;16.90;99.90
40589;DHT22;26297;49.450;6.640;2023-10-19T17:58:03;16.80;99.90
40589;DHT22;26297;49.450;6.640;2023-10-19T18:01:23;16.80;99.90
40589;DHT22;26297;49.450;6.640;2023-10-19T18:04:26;16.80;99.90
40589;DHT22;26297;49.450;6.640;2023-10-19T18:07:35;16.80;99.90
40589;DHT22;26297;49.450;6.640;2023-10-19T18:10:49;16.80;99.90
40589;DHT22;26297;49.450;6.640;2023-10-19T18:13:53;16.90;99.90
40589;DHT22;26297;49.450;6.640;2023-10-19T18:16:58;16.90;99.90
40589;DHT22;26297;49.450;6.640;2023-10-19T18:20:03;16.90;99.90
40589;DHT22;26297;49.450;6.640;2023-10-19T18:23:11;16.90;99.90
40589;DHT22;26297;49.450;6.640;2023-10-19T18:26:14;16.90;99.90
40589;DHT22;26297;49.450;6.640;2023-10-19T18:29:22;16.90;99.90
40589;DHT22;26297;49.450;6.640;2023-10-19T18:32:25;16.90;99.90
40589;DHT22;26297;49.450;6.640;2023-10-19T18:35:34;16.90;99.90
40589;DHT22;26297;49.450;6.640;2023-10-19T18:38:28;16.90;99.90
40589;DHT22;26297;49.450;6.640;2023-10-19T18:41:53;16.90;99.90
40589;DHT22;26297;49.450;6.640;2023-10-19T18:45:11;16.80;99.90
40589;DHT22;26297;49.450;6.640;2023-10-19T18:48:30;16.90;99.90
40589;DHT22;26297;49.450;6.640;2023-10-19T18:55:40;16.90;99.90
40589;DHT22;26297;49.450;6.640;2023-10-19T18:58:54;16.90;99.90
40589;DHT22;26297;49.450;6.640;2023-10-19T19:02:15;16.90;99.90
40589;DHT22;26297;49.450;6.640;2023-10-19T19:05:29;16.80;99.90
40589;DHT22;26297;49.450;6.640;2023-10-19T19:08:35;16.90;99.90
40589;DHT22;26297;49.450;6.640;2023-10-19T19:11:39;16.90;99.90
40589;DHT22;26297;49.450;6.640;2023-10-19T19:14:45;16.90;99.90
40589;DHT22;26297;49.450;6.640;2023-10-19T19:17:47;16.90;99.90
40589;DHT22;26297;49.450;6.640;2023-10-19T19:20:52;16.90;99.90
40589;DHT22;26297;49.450;6.640;2023-10-19T19:24:08;16.90;99.90
40589;DHT22;26297;49.450;6.640;2023-10-19T19:27:15;16.90;99.90
40589;DHT22;26297;49.450;6.640;2023-10-19T19:30:20;16.90;99.90
40589;DHT22;26297;49.450;6.640;2023-10-19T19:33:25;16.90;99.90
40589;DHT22;26297;49.450;6.640;2023-10-19T19:36:28;16.90;99.90
40589;DHT22;26297;49.450;6.640;2023-10-19T19:39:34;16.90;99.90
40589;DHT22;26297;49.450;6.640;2023-10-19T19:42:42;16.90;99.90
40589;DHT22;26297;49.450;6.640;2023-10-19T19:45:53;16.80;99.90
40589;DHT22;26297;49.450;6.640;2023-10-19T19:49:12;16.90;99.90
40589;DHT22;26297;49.450;6.640;2023-10-19T19:52:20;16.90;99.90
40589;DHT22;26297;49.450;6.640;2023-10-19T19:55:25;16.90;99.90
40589;DHT22;26297;49.450;6.640;2023-10-19T19:58:30;16.80;99.90
40589;DHT22;26297;49.450;6.640;2023-10-19T20:01:54;16.90;99.90
40589;DHT22;26297;49.450;6.640;2023-10-19T20:05:01;16.90;99.90
40589;DHT22;26297;49.450;6.640;2023-10-19T20:08:21;16.90;99.90
40589;DHT22;26297;49.450;6.640;2023-10-19T20:11:31;16.90;99.90
40589;DHT22;26297;49.450;6.640;2023-10-19T20:14:40;16.90;99.90
40589;DHT22;26297;49.450;6.640;2023-10-19T20:18:00;16.90;99.90
40589;DHT22;26297;49.450;6.640;2023-10-19T20:21:04;16.90;99.90
40589;DHT22;26297;49.450;6.640;2023-10-19T20:24:10;16.90;99.90
40589;DHT22;26297;49.450;6.640;2023-10-19T20:27:14;16.90;99.90
40589;DHT22;26297;49.450;6.640;2023-10-19T20:30:23;16.90;99.90
40589;DHT22;26297;49.450;6.640;2023-10-19T20:33:30;17.00;99.90
40589;DHT22;26297;49.450;6.640;2023-10-19T20:36:40;16.90;99.90
40589;DHT22;26297;49.450;6.640;2023-10-19T20:39:54;17.00;99.90
40589;DHT22;26297;49.450;6.640;2023-10-19T20:43:06;16.90;99.90
40589;DHT22;26297;49.450;6.640;2023-10-19T20:46:13;17.00;99.90
40589;DHT22;26297;49.450;6.640;2023-10-19T20:49:16;16.90;99.90
40589;DHT22;26297;49.450;6.640;2023-10-19T20:52:22;17.00;99.90
40589;DHT22;26297;49.450;6.640;2023-10-19T20:55:36;16.90;99.90
40589;DHT22;26297;49.450;6.640;2023-10-19T20:58:49;16.90;99.90
40589;DHT22;26297;49.450;6.640;2023-10-19T21:01:56;16.90;99.90
40589;DHT22;26297;49.450;6.640;2023-10-19T21:05:02;16.90;99.90
40589;DHT22;26297;49.450;6.640;2023-10-19T21:08:18;16.90;99.90
40589;DHT22;26297;49.450;6.640;2023-10-19T21:11:22;16.90;99.90
40589;DHT22;26297;49.450;6.640;2023-10-19T21:14:35;17.00;99.90